Welaka, Florida
Current Conditions -  °F | °C
As of 5:50 PM on Tuesday 21 Oct 2014 (Local Time) from KXFL Reporting Station
Scattered Clouds Scattered Clouds  
Wind Chill: 25°   Ceiling: Unl
Heat Index: 26°   Visibility: 7mi
Dew Point: 21°   Wind: 3mph
Humidity: 78%   Direction: 60°ENE
Pressure: 29.91"   Gusts: NA
Location:  29.48°N, 81.67°W
Report Text: KXFL 212150Z 06003KT 7SM SCT038 25/21 A2991
Loading
Personal Weather Stations






























Interactive Weather Map
Tropical Storm Tracking
New forecast layout! Learn more

10-Day Weather Forecast

Advertisements
Track Severe Weather on mobile